Time;durP1;ratioP1;P1;durP2;ratioP2;P2;SDS_P1;SDS_P2;PMS_P1;PMS_P2;Temp;Humidity;BMP_temperature;BMP_pressure;BME280_temperature;BME280_humidity;BME280_pressure;Samples;Min_cycle;Max_cycle;Signal;HPM_P1;HPM_P2
2022/03/09 00:01:23;;;;;;;13.02;8.40;;;;;;;;;;4937104;29;20063;-68
2022/03/09 00:03:50;;;;;;;15.73;8.45;;;;;;;;;;4936175;29;20185;-68
2022/03/09 00:06:16;;;;;;;15.13;8.68;;;;;;;;;;4936618;29;20495;-67
2022/03/09 00:08:43;;;;;;;14.02;8.57;;;;;;;;;;4936529;29;20047;-68
2022/03/09 00:11:09;;;;;;;13.02;8.32;;;;;;;;;;4936584;29;20056;-68
2022/03/09 00:13:36;;;;;;;16.27;8.88;;;;;;;;;;4936759;29;20048;-69
2022/03/09 00:16:03;;;;;;;15.93;9.32;;;;;;;;;;4936478;29;20063;-67
2022/03/09 00:18:30;;;;;;;14.35;8.00;;;;;;;;;;4937126;29;20047;-67
2022/03/09 00:20:57;;;;;;;13.25;7.78;;;;;;;;;;4935627;29;20055;-68
2022/03/09 00:23:27;;;;;;;12.55;8.38;;;;;;;;;;4935792;29;20503;-67
2022/03/09 00:25:54;;;;;;;15.32;8.30;;;;;;;;;;4936591;29;20086;-68
2022/03/09 00:28:20;;;;;;;14.40;8.23;;;;;;;;;;4936476;29;20431;-68
2022/03/09 00:30:47;;;;;;;19.27;8.90;;;;;;;;;;4917688;29;20111;-68
2022/03/09 00:33:13;;;;;;;27.92;14.18;;;;;;;;;;4917447;29;20056;-69
2022/03/09 00:35:42;;;;;;;22.17;12.10;;;;;;;;;;4916056;29;20056;-68
2022/03/09 00:38:09;;;;;;;21.90;10.35;;;;;;;;;;4917153;29;20051;-70
2022/03/09 00:40:35;;;;;;;19.70;10.25;;;;;;;;;;4917092;29;20562;-67
2022/03/09 00:43:02;;;;;;;18.73;10.02;;;;;;;;;;4917025;29;20052;-69
2022/03/09 00:45:29;;;;;;;17.80;10.98;;;;;;;;;;4916993;29;20567;-68
2022/03/09 00:47:55;;;;;;;19.02;10.23;;;;;;;;;;4917097;29;20527;-69
2022/03/09 00:50:22;;;;;;;17.02;10.40;;;;;;;;;;4932692;29;20080;-68
2022/03/09 00:52:48;;;;;;;16.65;9.88;;;;;;;;;;4935758;29;20056;-68
2022/03/09 00:55:15;;;;;;;13.52;8.70;;;;;;;;;;4935776;29;20119;-69
2022/03/09 00:57:41;;;;;;;15.48;9.45;;;;;;;;;;4936209;29;20047;-67
2022/03/09 01:00:09;;;;;;;19.85;10.45;;;;;;;;;;4935464;29;20507;-68
2022/03/09 01:02:43;;;;;;;16.05;10.02;;;;;;;;;;4935894;29;20048;-68
2022/03/09 01:05:10;;;;;;;17.67;9.75;;;;;;;;;;4935953;29;20520;-67
2022/03/09 01:07:40;;;;;;;21.42;10.18;;;;;;;;;;4935051;29;20055;-67
2022/03/09 01:10:08;;;;;;;17.80;10.32;;;;;;;;;;4935242;29;20047;-68
2022/03/09 01:12:34;;;;;;;16.70;9.45;;;;;;;;;;4935741;29;20116;-68
2022/03/09 01:15:01;;;;;;;16.13;10.65;;;;;;;;;;4935365;29;20111;-68
2022/03/09 01:17:28;;;;;;;17.98;10.27;;;;;;;;;;4935582;29;20106;-68
2022/03/09 01:19:55;;;;;;;16.42;9.70;;;;;;;;;;4935380;29;20047;-68
2022/03/09 01:22:21;;;;;;;19.50;9.80;;;;;;;;;;4935292;29;20052;-68
2022/03/09 01:24:48;;;;;;;13.63;8.57;;;;;;;;;;4935147;29;20107;-68
2022/03/09 01:27:14;;;;;;;12.48;8.15;;;;;;;;;;4935105;29;20051;-66
2022/03/09 01:29:41;;;;;;;16.20;9.13;;;;;;;;;;4934768;29;20091;-68
2022/03/09 01:32:08;;;;;;;21.92;8.80;;;;;;;;;;4935305;29;20103;-68
2022/03/09 01:34:34;;;;;;;13.63;8.80;;;;;;;;;;4935117;29;20110;-68
2022/03/09 01:37:01;;;;;;;14.43;8.23;;;;;;;;;;4934623;29;20471;-67
2022/03/09 01:39:28;;;;;;;13.52;8.27;;;;;;;;;;4934580;29;20056;-68
2022/03/09 01:41:55;;;;;;;17.80;9.27;;;;;;;;;;4935200;29;20051;-69
2022/03/09 01:44:23;;;;;;;19.85;9.57;;;;;;;;;;4935032;29;20566;-69
2022/03/09 01:46:52;;;;;;;12.15;7.00;;;;;;;;;;4934947;29;20055;-68
2022/03/09 01:49:20;;;;;;;10.80;7.78;;;;;;;;;;4934778;29;20048;-68
2022/03/09 01:51:48;;;;;;;16.05;9.35;;;;;;;;;;4934671;29;20052;-66
2022/03/09 01:54:15;;;;;;;13.55;8.52;;;;;;;;;;4934893;29;20479;-67
2022/03/09 01:56:42;;;;;;;17.10;8.23;;;;;;;;;;4934677;29;20523;-67
2022/03/09 01:59:10;;;;;;;14.55;9.13;;;;;;;;;;4934911;29;20086;-68
2022/03/09 02:01:37;;;;;;;13.13;8.13;;;;;;;;;;4934534;29;20173;-68
2022/03/09 02:04:05;;;;;;;14.55;8.50;;;;;;;;;;4933504;29;20509;-68
2022/03/09 02:06:33;;;;;;;15.77;9.13;;;;;;;;;;4934531;29;20507;-68
2022/03/09 02:11:46;;;;;;;16.08;8.98;;;;;;;;;;4934596;29;20055;-67
2022/03/09 02:14:27;;;;;;;14.98;8.88;;;;;;;;;;4933439;29;20079;-68
2022/03/09 02:16:55;;;;;;;17.23;9.70;;;;;;;;;;4934472;29;20412;-67
2022/03/09 02:19:21;;;;;;;16.25;9.52;;;;;;;;;;4934644;29;20052;-68
2022/03/09 02:21:48;;;;;;;16.55;9.43;;;;;;;;;;4934437;29;20052;-68
2022/03/09 02:24:15;;;;;;;20.23;10.32;;;;;;;;;;4933252;29;20111;-68
2022/03/09 02:26:41;;;;;;;16.98;10.30;;;;;;;;;;4934321;29;20048;-68
2022/03/09 02:29:08;;;;;;;15.20;8.73;;;;;;;;;;4914020;29;20496;-67
2022/03/09 02:31:35;;;;;;;12.88;8.93;;;;;;;;;;4915421;29;20112;-67
2022/03/09 02:34:01;;;;;;;18.15;10.05;;;;;;;;;;4915660;29;20056;-67
2022/03/09 02:36:28;;;;;;;17.15;9.57;;;;;;;;;;4915286;29;20500;-66
2022/03/09 02:38:54;;;;;;;16.30;9.95;;;;;;;;;;4917601;29;20056;-67
2022/03/09 02:41:21;;;;;;;18.75;9.50;;;;;;;;;;4934251;29;20126;-68
2022/03/09 02:43:47;;;;;;;17.77;9.88;;;;;;;;;;4934186;29;20052;-68
2022/03/09 02:46:14;;;;;;;16.17;8.77;;;;;;;;;;4934406;29;20056;-67
2022/03/09 02:48:41;;;;;;;15.50;9.25;;;;;;;;;;4934341;29;20051;-68
2022/03/09 02:51:09;;;;;;;17.15;9.73;;;;;;;;;;4933966;29;20460;-68
2022/03/09 02:53:36;;;;;;;16.77;9.18;;;;;;;;;;4934284;29;20056;-69
2022/03/09 02:56:03;;;;;;;14.65;8.75;;;;;;;;;;4934191;29;20052;-67
2022/03/09 02:58:30;;;;;;;15.05;9.25;;;;;;;;;;4934121;29;20078;-69
2022/03/09 03:00:56;;;;;;;14.02;8.77;;;;;;;;;;4934152;29;20060;-67
2022/03/09 03:03:23;;;;;;;19.65;8.88;;;;;;;;;;4934288;29;20056;-68
2022/03/09 03:05:50;;;;;;;15.55;9.23;;;;;;;;;;4934239;29;20408;-68
2022/03/09 03:08:17;;;;;;;19.15;8.55;;;;;;;;;;4930921;29;20051;-67
2022/03/09 03:10:44;;;;;;;14.95;7.90;;;;;;;;;;4932481;29;20545;-68
2022/03/09 03:13:10;;;;;;;11.98;8.10;;;;;;;;;;4924755;29;20047;-67
2022/03/09 03:15:37;;;;;;;15.48;8.80;;;;;;;;;;4920285;29;20060;-67
2022/03/09 03:18:05;;;;;;;15.95;9.00;;;;;;;;;;4915055;29;20103;-67
2022/03/09 03:20:31;;;;;;;12.57;8.68;;;;;;;;;;4914920;29;20056;-67
2022/03/09 03:22:58;;;;;;;12.13;8.45;;;;;;;;;;4917843;29;20495;-67
2022/03/09 03:25:24;;;;;;;14.82;8.80;;;;;;;;;;4933766;29;20055;-68
2022/03/09 03:27:51;;;;;;;15.20;8.90;;;;;;;;;;4934068;29;20071;-67
2022/03/09 03:30:18;;;;;;;14.32;8.88;;;;;;;;;;4935694;29;20054;-67
2022/03/09 03:32:44;;;;;;;15.25;8.63;;;;;;;;;;4937322;29;20047;-66
2022/03/09 03:35:11;;;;;;;12.57;8.10;;;;;;;;;;4937397;29;20047;-68
2022/03/09 03:37:40;;;;;;;14.50;7.65;;;;;;;;;;4929841;29;20412;-68
2022/03/09 03:40:07;;;;;;;13.80;8.70;;;;;;;;;;4926850;29;20048;-68
2022/03/09 03:42:34;;;;;;;15.63;8.63;;;;;;;;;;4926781;29;20095;-67
2022/03/09 03:45:01;;;;;;;13.63;8.35;;;;;;;;;;4928514;29;20048;-68
2022/03/09 03:47:27;;;;;;;15.57;8.88;;;;;;;;;;4927132;29;20111;-68
2022/03/09 03:49:55;;;;;;;16.70;9.43;;;;;;;;;;4927029;29;20043;-69
2022/03/09 03:52:21;;;;;;;14.43;8.75;;;;;;;;;;4917912;29;20052;-67
2022/03/09 03:54:48;;;;;;;12.93;8.00;;;;;;;;;;4917897;29;20111;-67
2022/03/09 03:57:14;;;;;;;14.85;9.13;;;;;;;;;;4918171;29;20076;-67
2022/03/09 03:59:41;;;;;;;14.20;8.30;;;;;;;;;;4920171;29;20484;-68
2022/03/09 04:02:07;;;;;;;16.05;9.10;;;;;;;;;;4937274;29;20047;-68
2022/03/09 04:04:34;;;;;;;18.60;9.57;;;;;;;;;;4936875;29;20051;-68
2022/03/09 04:07:01;;;;;;;17.15;8.32;;;;;;;;;;4936608;29;20107;-68
2022/03/09 04:09:28;;;;;;;15.52;8.77;;;;;;;;;;4936430;29;20048;-68
2022/03/09 04:11:54;;;;;;;17.35;9.43;;;;;;;;;;4936794;29;20056;-68
2022/03/09 04:14:22;;;;;;;16.95;9.45;;;;;;;;;;4936849;29;20114;-68
2022/03/09 04:16:49;;;;;;;14.18;8.38;;;;;;;;;;4936950;29;20052;-68
2022/03/09 04:19:16;;;;;;;16.27;9.68;;;;;;;;;;4936496;29;20110;-65
2022/03/09 04:21:43;;;;;;;16.58;9.13;;;;;;;;;;4936103;29;20059;-66
2022/03/09 04:24:09;;;;;;;15.55;8.73;;;;;;;;;;4936744;29;20055;-67
2022/03/09 04:26:36;;;;;;;17.20;9.20;;;;;;;;;;4936218;29;20499;-68
2022/03/09 04:29:05;;;;;;;15.32;9.73;;;;;;;;;;4936411;29;20051;-68
2022/03/09 04:31:32;;;;;;;14.68;8.85;;;;;;;;;;4936045;29;20056;-68
2022/03/09 04:33:59;;;;;;;14.82;9.43;;;;;;;;;;4936200;29;20052;-67
2022/03/09 04:36:25;;;;;;;16.63;9.20;;;;;;;;;;4936037;29;20471;-68
2022/03/09 04:38:52;;;;;;;14.95;8.90;;;;;;;;;;4991256;23;20113;-63
2022/03/09 04:41:18;;;;;;;16.27;9.05;;;;;;;;;;4973308;28;20509;-63
2022/03/09 04:43:45;;;;;;;14.52;9.25;;;;;;;;;;4974489;28;20153;-64
2022/03/09 04:46:11;;;;;;;15.85;9.60;;;;;;;;;;4974505;28;20055;-63
2022/03/09 04:48:38;;;;;;;16.05;9.43;;;;;;;;;;4974131;28;20461;-63
2022/03/09 04:51:05;;;;;;;15.73;9.48;;;;;;;;;;4973971;28;20098;-63
2022/03/09 04:53:31;;;;;;;17.52;9.90;;;;;;;;;;4974263;28;20109;-64
2022/03/09 04:55:58;;;;;;;16.05;9.52;;;;;;;;;;4974169;28;20078;-63
2022/03/09 04:58:25;;;;;;;20.08;9.57;;;;;;;;;;4973041;28;20421;-63
2022/03/09 05:00:52;;;;;;;17.75;9.85;;;;;;;;;;4973723;28;20461;-64
2022/03/09 05:03:19;;;;;;;15.15;9.27;;;;;;;;;;4972990;28;20533;-63
2022/03/09 05:05:46;;;;;;;14.63;9.52;;;;;;;;;;4974062;28;20054;-64
2022/03/09 05:08:13;;;;;;;19.73;9.82;;;;;;;;;;4972805;28;20109;-63
2022/03/09 05:10:40;;;;;;;18.70;9.88;;;;;;;;;;4973364;28;20050;-64
2022/03/09 05:13:06;;;;;;;14.57;9.07;;;;;;;;;;4972836;28;20082;-63
2022/03/09 05:15:33;;;;;;;15.57;9.70;;;;;;;;;;4973894;28;20105;-64
2022/03/09 05:18:00;;;;;;;14.45;9.05;;;;;;;;;;4973683;28;20090;-64
2022/03/09 05:20:26;;;;;;;14.13;8.98;;;;;;;;;;4965623;28;20102;-64
2022/03/09 05:22:53;;;;;;;16.83;9.48;;;;;;;;;;4954443;28;20051;-64
2022/03/09 05:25:20;;;;;;;15.07;9.48;;;;;;;;;;4962816;28;20054;-63
2022/03/09 05:27:46;;;;;;;16.83;10.45;;;;;;;;;;4973674;28;20113;-64
2022/03/09 05:30:13;;;;;;;19.58;9.80;;;;;;;;;;4969477;28;20043;-65
2022/03/09 05:32:40;;;;;;;19.23;9.63;;;;;;;;;;4953097;29;20098;-64
2022/03/09 05:35:09;;;;;;;20.95;10.65;;;;;;;;;;4954739;29;20102;-64
2022/03/09 05:37:41;;;;;;;11.48;7.22;;;;;;;;;;4954116;28;20506;-64
2022/03/09 05:40:09;;;;;;;16.83;9.30;;;;;;;;;;4953993;28;20043;-62
2022/03/09 05:42:36;;;;;;;18.17;10.48;;;;;;;;;;4953999;28;20503;-64
2022/03/09 05:45:04;;;;;;;15.55;9.00;;;;;;;;;;4952674;29;20055;-64
2022/03/09 05:47:50;;;;;;;13.90;8.40;;;;;;;;;;4953887;28;20113;-64
2022/03/09 05:50:18;;;;;;;13.73;8.93;;;;;;;;;;4953629;28;20094;-65
2022/03/09 05:52:45;;;;;;;14.90;9.52;;;;;;;;;;4953691;28;20075;-63
2022/03/09 05:55:12;;;;;;;15.13;8.55;;;;;;;;;;4952667;29;20048;-64
2022/03/09 05:57:38;;;;;;;18.83;10.23;;;;;;;;;;4953728;28;20118;-64
2022/03/09 06:00:08;;;;;;;20.70;11.02;;;;;;;;;;4953650;28;20047;-64
2022/03/09 06:02:35;;;;;;;16.27;9.80;;;;;;;;;;4953644;28;20051;-64
2022/03/09 06:05:02;;;;;;;16.52;8.70;;;;;;;;;;4953754;28;20106;-64
2022/03/09 06:07:30;;;;;;;17.10;8.43;;;;;;;;;;4936822;29;20051;-63
2022/03/09 06:09:57;;;;;;;15.60;8.55;;;;;;;;;;4953387;28;20052;-65
2022/03/09 06:12:24;;;;;;;15.77;8.68;;;;;;;;;;4953516;28;20505;-63
2022/03/09 06:14:50;;;;;;;16.90;9.30;;;;;;;;;;4953830;28;20055;-63
2022/03/09 06:17:17;;;;;;;14.48;8.10;;;;;;;;;;4953583;28;20136;-63
2022/03/09 06:19:43;;;;;;;15.82;8.75;;;;;;;;;;4967002;28;20124;-64
2022/03/09 06:22:10;;;;;;;16.77;8.43;;;;;;;;;;4972897;28;20110;-63
2022/03/09 06:24:36;;;;;;;14.25;8.52;;;;;;;;;;4972748;28;20090;-63
2022/03/09 06:27:04;;;;;;;13.95;8.40;;;;;;;;;;4973021;28;20055;-65
2022/03/09 06:29:30;;;;;;;18.95;9.50;;;;;;;;;;4960393;28;20109;-64
2022/03/09 06:31:57;;;;;;;16.67;9.65;;;;;;;;;;4952520;29;20454;-61
2022/03/09 06:34:24;;;;;;;21.10;11.68;;;;;;;;;;4953592;28;20470;-63
2022/03/09 06:36:51;;;;;;;23.35;12.85;;;;;;;;;;4952108;29;20110;-64
2022/03/09 06:39:17;;;;;;;26.15;15.10;;;;;;;;;;4963300;28;20058;-65
2022/03/09 06:41:45;;;;;;;20.30;12.82;;;;;;;;;;4972565;28;20560;-62
2022/03/09 06:44:13;;;;;;;17.80;10.75;;;;;;;;;;4970280;28;20578;-63
2022/03/09 06:46:40;;;;;;;19.25;10.02;;;;;;;;;;4970615;28;20191;-63
2022/03/09 06:49:07;;;;;;;14.82;9.15;;;;;;;;;;4970510;28;20447;-63
2022/03/09 06:51:34;;;;;;;18.90;9.35;;;;;;;;;;4969125;28;20050;-65
2022/03/09 06:54:01;;;;;;;19.15;10.07;;;;;;;;;;4969277;28;20054;-63
2022/03/09 06:56:27;;;;;;;18.52;10.23;;;;;;;;;;4970629;28;20050;-63
2022/03/09 06:58:54;;;;;;;21.45;9.90;;;;;;;;;;4962391;28;20055;-63
2022/03/09 07:01:20;;;;;;;16.00;9.45;;;;;;;;;;4951290;28;20084;-63
2022/03/09 07:03:47;;;;;;;20.27;9.50;;;;;;;;;;4951327;28;20289;-64
2022/03/09 07:06:14;;;;;;;18.58;10.18;;;;;;;;;;4954739;28;20454;-64
2022/03/09 07:08:41;;;;;;;16.92;9.40;;;;;;;;;;4960105;28;20571;-63
2022/03/09 07:11:07;;;;;;;15.15;9.63;;;;;;;;;;4972466;28;20101;-63
2022/03/09 07:13:36;;;;;;;14.57;8.55;;;;;;;;;;4974221;28;20050;-64
2022/03/09 07:16:03;;;;;;;16.50;9.23;;;;;;;;;;4974092;28;20091;-64
2022/03/09 07:18:30;;;;;;;17.92;8.43;;;;;;;;;;4969791;28;20493;-64
2022/03/09 07:20:57;;;;;;;17.02;8.82;;;;;;;;;;4954270;28;20047;-64
2022/03/09 07:23:24;;;;;;;14.02;8.05;;;;;;;;;;4954285;28;20106;-63
2022/03/09 07:25:54;;;;;;;16.30;9.50;;;;;;;;;;4954933;28;20067;-62
2022/03/09 07:28:20;;;;;;;13.73;8.23;;;;;;;;;;4956633;28;20059;-64
2022/03/09 07:30:47;;;;;;;13.52;8.25;;;;;;;;;;4972411;28;20461;-64
2022/03/09 07:33:15;;;;;;;15.20;8.90;;;;;;;;;;4974140;28;20047;-63
2022/03/09 07:35:42;;;;;;;17.05;9.52;;;;;;;;;;4972756;28;20047;-64
2022/03/09 07:38:10;;;;;;;14.43;8.68;;;;;;;;;;4972404;28;20046;-64
2022/03/09 07:40:37;;;;;;;19.67;10.00;;;;;;;;;;4954299;28;20653;-64
2022/03/09 07:43:03;;;;;;;15.65;8.38;;;;;;;;;;4953086;29;20130;-64
2022/03/09 07:45:30;;;;;;;15.93;8.48;;;;;;;;;;4954155;28;20055;-64
2022/03/09 07:47:57;;;;;;;15.25;8.95;;;;;;;;;;4954034;28;20089;-63
2022/03/09 07:50:23;;;;;;;14.55;8.25;;;;;;;;;;4971733;28;20055;-65
2022/03/09 07:52:50;;;;;;;13.40;8.00;;;;;;;;;;4960713;28;20376;-64
2022/03/09 07:55:18;;;;;;;11.60;7.43;;;;;;;;;;4971428;28;20112;-63
2022/03/09 07:57:45;;;;;;;14.57;7.88;;;;;;;;;;4960850;28;20454;-64
2022/03/09 08:00:12;;;;;;;12.18;7.47;;;;;;;;;;4962021;28;20047;-63
2022/03/09 08:02:40;;;;;;;12.27;7.82;;;;;;;;;;4967534;28;20078;-62
2022/03/09 08:05:09;;;;;;;14.30;7.65;;;;;;;;;;4971708;28;20060;-63
2022/03/09 08:07:36;;;;;;;11.55;7.63;;;;;;;;;;4962560;28;20109;-64
2022/03/09 08:10:04;;;;;;;11.68;7.07;;;;;;;;;;4958729;28;20098;-63
2022/03/09 08:12:31;;;;;;;14.77;7.93;;;;;;;;;;4958545;28;20047;-63
2022/03/09 08:14:58;;;;;;;13.57;8.38;;;;;;;;;;4962856;28;20424;-63
2022/03/09 08:17:25;;;;;;;11.15;6.88;;;;;;;;;;4965169;28;20406;-63
2022/03/09 08:19:57;;;;;;;17.30;7.85;;;;;;;;;;4962561;28;20117;-65
2022/03/09 08:22:24;;;;;;;13.13;8.13;;;;;;;;;;4961166;28;20445;-65
2022/03/09 08:24:50;;;;;;;13.18;7.70;;;;;;;;;;4960002;28;20121;-63
2022/03/09 08:27:17;;;;;;;14.55;7.75;;;;;;;;;;4961477;28;20050;-63
2022/03/09 08:29:43;;;;;;;13.32;7.72;;;;;;;;;;4961917;28;20683;-61
2022/03/09 08:32:12;;;;;;;13.65;7.25;;;;;;;;;;4957559;28;20051;-73
2022/03/09 08:34:39;;;;;;;11.60;8.35;;;;;;;;;;4968303;28;20049;-74
2022/03/09 08:37:07;;;;;;;11.80;7.57;;;;;;;;;;4948532;28;20051;-76
2022/03/09 08:39:34;;;;;;;15.88;8.85;;;;;;;;;;4969641;28;20047;-73
2022/03/09 08:42:01;;;;;;;14.70;8.23;;;;;;;;;;4970856;28;20531;-65
2022/03/09 08:44:39;;;;;;;18.02;9.32;;;;;;;;;;4960977;28;20078;-67
2022/03/09 08:47:06;;;;;;;15.55;9.65;;;;;;;;;;4959998;28;20050;-67
2022/03/09 08:49:33;;;;;;;16.98;9.35;;;;;;;;;;4964746;28;20101;-66
2022/03/09 08:52:00;;;;;;;15.57;9.13;;;;;;;;;;4961358;28;20073;-65
2022/03/09 08:54:27;;;;;;;16.35;9.57;;;;;;;;;;4961135;28;20126;-67
2022/03/09 08:56:53;;;;;;;15.75;10.07;;;;;;;;;;4960176;28;20062;-70
2022/03/09 08:59:40;;;;;;;17.38;10.52;;;;;;;;;;4959310;28;20578;-68
2022/03/09 09:02:06;;;;;;;17.15;9.75;;;;;;;;;;4963267;28;20106;-71
2022/03/09 09:04:34;;;;;;;14.60;9.43;;;;;;;;;;4961443;28;20050;-67
2022/03/09 09:07:00;;;;;;;17.75;9.48;;;;;;;;;;4963506;28;20069;-69
2022/03/09 09:09:27;;;;;;;15.57;9.77;;;;;;;;;;4968222;28;20054;-69
2022/03/09 09:11:54;;;;;;;17.55;8.75;;;;;;;;;;4962655;28;20043;-67
2022/03/09 09:14:21;;;;;;;15.88;9.25;;;;;;;;;;4962416;28;20061;-70
2022/03/09 09:16:47;;;;;;;17.67;9.93;;;;;;;;;;4957802;28;20061;-70
2022/03/09 09:19:15;;;;;;;19.15;9.40;;;;;;;;;;4969352;28;20114;-68
2022/03/09 09:21:44;;;;;;;16.15;8.95;;;;;;;;;;4975891;28;20049;-69
2022/03/09 09:24:11;;;;;;;18.70;9.77;;;;;;;;;;4960059;28;20387;-69
2022/03/09 09:26:37;;;;;;;15.55;10.02;;;;;;;;;;4959322;28;20051;-64
2022/03/09 09:29:24;;;;;;;17.20;9.40;;;;;;;;;;4959568;28;20066;-66
2022/03/09 09:31:51;;;;;;;14.40;9.35;;;;;;;;;;4968931;28;20102;-66
2022/03/09 09:34:18;;;;;;;15.30;8.98;;;;;;;;;;4961316;28;20082;-67
2022/03/09 09:36:47;;;;;;;15.05;8.43;;;;;;;;;;4960745;28;20137;-64
2022/03/09 09:39:14;;;;;;;11.50;7.13;;;;;;;;;;4962101;28;20082;-64
2022/03/09 09:41:45;;;;;;;12.65;8.48;;;;;;;;;;4960379;28;20101;-64
2022/03/09 09:44:12;;;;;;;12.15;8.65;;;;;;;;;;4942847;28;20576;-64
2022/03/09 09:46:40;;;;;;;15.85;8.43;;;;;;;;;;4957940;28;20396;-71
2022/03/09 09:49:12;;;;;;;13.38;7.88;;;;;;;;;;4948673;28;20054;-68
2022/03/09 09:51:45;;;;;;;13.15;7.75;;;;;;;;;;4950378;28;20047;-69
2022/03/09 09:54:13;;;;;;;15.10;8.80;;;;;;;;;;4969208;28;20047;-69
2022/03/09 09:56:41;;;;;;;14.82;9.02;;;;;;;;;;4960657;28;20059;-67
2022/03/09 09:59:09;;;;;;;13.05;9.15;;;;;;;;;;4945246;28;20096;-67
2022/03/09 10:01:36;;;;;;;12.13;7.78;;;;;;;;;;4959757;28;20097;-65
2022/03/09 10:04:04;;;;;;;12.02;8.68;;;;;;;;;;4970530;28;20053;-64
2022/03/09 10:06:31;;;;;;;12.60;7.82;;;;;;;;;;4943226;28;20569;-64
2022/03/09 10:09:09;;;;;;;11.55;8.30;;;;;;;;;;4959570;28;20051;-65
2022/03/09 10:11:52;;;;;;;13.88;9.35;;;;;;;;;;4967741;28;20047;-65
2022/03/09 10:14:38;;;;;;;12.23;8.50;;;;;;;;;;4958388;28;20055;-68
2022/03/09 10:17:24;;;;;;;19.15;8.82;;;;;;;;;;4962489;28;20062;-64
2022/03/09 10:19:54;;;;;;;13.30;9.25;;;;;;;;;;4966930;28;20135;-69
2022/03/09 10:22:30;;;;;;;14.15;9.07;;;;;;;;;;4942804;28;20055;-69
2022/03/09 10:25:15;;;;;;;;;;;;;;;;;;4960979;28;20058;-68
2022/03/09 10:27:43;;;;;;;15.45;8.82;;;;;;;;;;4987067;23;19933;-67
2022/03/09 10:30:13;;;;;;;11.70;8.57;;;;;;;;;;4950862;29;20047;-69
2022/03/09 10:32:54;;;;;;;17.10;9.95;;;;;;;;;;4939222;29;20039;-68
2022/03/09 10:35:39;;;;;;;13.07;9.32;;;;;;;;;;4956947;28;20598;-66
2022/03/09 10:38:10;;;;;;;15.30;9.57;;;;;;;;;;4964175;23;20050;-71
2022/03/09 10:40:45;;;;;;;14.23;8.63;;;;;;;;;;4974511;28;20058;-78
2022/03/09 10:43:20;;;;;;;14.65;9.43;;;;;;;;;;4974890;28;20046;-71
2022/03/09 10:46:07;;;;;;;13.85;9.18;;;;;;;;;;4975511;28;20062;-70
2022/03/09 10:48:49;;;;;;;17.00;9.40;;;;;;;;;;4975855;28;20066;-72
2022/03/09 10:51:32;;;;;;;14.98;9.32;;;;;;;;;;4974909;28;20055;-72
2022/03/09 10:54:02;;;;;;;16.15;9.88;;;;;;;;;;4974730;28;20517;-72
2022/03/09 10:56:29;;;;;;;13.85;9.85;;;;;;;;;;4974151;28;20098;-67
2022/03/09 10:58:56;;;;;;;13.90;8.68;;;;;;;;;;4974433;28;20094;-69
2022/03/09 11:01:25;;;;;;;14.88;9.80;;;;;;;;;;4972461;28;20105;-68
2022/03/09 11:03:52;;;;;;;17.10;10.55;;;;;;;;;;4971739;28;20054;-68
2022/03/09 11:06:20;;;;;;;14.70;10.65;;;;;;;;;;4974321;28;20082;-71
2022/03/09 11:08:46;;;;;;;16.27;10.15;;;;;;;;;;4958180;28;20179;-70
2022/03/09 11:11:14;;;;;;;16.00;10.50;;;;;;;;;;4974645;28;20047;-71
2022/03/09 11:13:41;;;;;;;17.48;10.45;;;;;;;;;;4974192;28;20137;-66
2022/03/09 11:16:08;;;;;;;18.02;12.05;;;;;;;;;;4975098;28;20577;-69
2022/03/09 11:18:36;;;;;;;14.55;9.93;;;;;;;;;;4975976;28;20413;-67
2022/03/09 11:21:08;;;;;;;18.75;11.15;;;;;;;;;;4974242;28;20105;-70
2022/03/09 11:23:37;;;;;;;16.43;10.20;;;;;;;;;;4974456;28;20047;-70
2022/03/09 11:26:13;;;;;;;16.83;10.75;;;;;;;;;;4932841;28;20058;-69
2022/03/09 11:28:42;;;;;;;17.02;10.25;;;;;;;;;;4976020;28;20051;-70
2022/03/09 11:31:10;;;;;;;18.77;10.77;;;;;;;;;;4974450;28;20125;-72
2022/03/09 11:33:53;;;;;;;15.50;10.70;;;;;;;;;;4973831;28;20497;-67
2022/03/09 11:36:26;;;;;;;17.63;10.32;;;;;;;;;;4975354;28;20062;-72
2022/03/09 11:38:54;;;;;;;17.25;9.80;;;;;;;;;;4974636;28;20489;-72
2022/03/09 11:41:28;;;;;;;15.57;10.48;;;;;;;;;;4963655;28;20066;-72
2022/03/09 11:44:24;;;;;;;15.43;9.98;;;;;;;;;;4973181;28;20511;-71
2022/03/09 11:46:56;;;;;;;15.38;9.30;;;;;;;;;;4973866;28;20525;-69
2022/03/09 11:49:24;;;;;;;14.32;9.15;;;;;;;;;;4972875;28;20097;-69
2022/03/09 11:52:14;;;;;;;13.30;9.18;;;;;;;;;;4971990;28;20042;-68
2022/03/09 11:54:45;;;;;;;17.17;10.75;;;;;;;;;;4972708;28;20079;-69
2022/03/09 11:57:14;;;;;;;14.65;10.63;;;;;;;;;;4973535;28;20050;-68
2022/03/09 12:00:07;;;;;;;14.35;9.93;;;;;;;;;;4974082;28;20047;-70
2022/03/09 12:02:48;;;;;;;15.88;10.80;;;;;;;;;;4973956;28;20051;-75
2022/03/09 12:05:24;;;;;;;17.45;10.02;;;;;;;;;;4939606;28;20061;-75
2022/03/09 12:07:52;;;;;;;14.77;10.77;;;;;;;;;;4972467;28;20057;-73
2022/03/09 12:10:22;;;;;;;17.15;9.55;;;;;;;;;;4974267;28;20058;-74
2022/03/09 12:13:10;;;;;;;15.27;10.27;;;;;;;;;;4968770;28;20119;-73
2022/03/09 12:15:58;;;;;;;15.80;9.98;;;;;;;;;;4974100;28;20098;-69
2022/03/09 12:18:42;;;;;;;17.10;11.10;;;;;;;;;;4973480;28;20054;-68
2022/03/09 12:21:11;;;;;;;15.40;10.52;;;;;;;;;;4973669;28;20113;-68
2022/03/09 12:24:13;;;;;;;16.67;10.60;;;;;;;;;;4972387;28;20047;-68
2022/03/09 12:26:44;;;;;;;14.45;10.05;;;;;;;;;;4961608;28;20062;-67
2022/03/09 12:29:20;;;;;;;15.27;10.23;;;;;;;;;;4972925;28;20119;-68
2022/03/09 12:32:11;;;;;;;14.55;9.85;;;;;;;;;;4973178;28;20134;-69
2022/03/09 12:34:46;;;;;;;18.45;10.15;;;;;;;;;;4972506;28;20043;-69
2022/03/09 12:37:17;;;;;;;17.15;10.95;;;;;;;;;;4973006;28;20050;-68
2022/03/09 12:39:58;;;;;;;15.88;10.25;;;;;;;;;;4971875;28;20098;-69
2022/03/09 12:42:28;;;;;;;16.23;10.63;;;;;;;;;;4972483;28;20051;-68
2022/03/09 12:44:59;;;;;;;16.73;10.75;;;;;;;;;;4973964;28;20053;-73
2022/03/09 12:47:26;;;;;;;16.40;11.20;;;;;;;;;;4972654;28;20513;-70
2022/03/09 12:49:54;;;;;;;15.13;11.27;;;;;;;;;;4971934;28;20058;-69
2022/03/09 12:52:22;;;;;;;15.18;10.10;;;;;;;;;;4972725;28;20082;-68
2022/03/09 12:54:56;;;;;;;14.88;10.45;;;;;;;;;;4975061;28;20046;-70
2022/03/09 12:57:30;;;;;;;14.13;10.13;;;;;;;;;;4970154;28;20637;-71
2022/03/09 13:00:00;;;;;;;16.38;10.60;;;;;;;;;;4971396;28;20403;-68
2022/03/09 13:02:47;;;;;;;16.63;11.93;;;;;;;;;;4970777;28;20074;-68
2022/03/09 13:05:20;;;;;;;14.43;11.05;;;;;;;;;;4971158;28;20307;-68
2022/03/09 13:07:57;;;;;;;14.23;10.40;;;;;;;;;;4969755;28;20070;-68
2022/03/09 13:10:25;;;;;;;15.30;10.57;;;;;;;;;;4971833;28;20058;-68
2022/03/09 13:12:54;;;;;;;15.00;11.10;;;;;;;;;;4972352;28;20050;-69
2022/03/09 13:15:22;;;;;;;12.02;10.00;;;;;;;;;;4972667;28;20054;-70
2022/03/09 13:17:50;;;;;;;16.55;11.40;;;;;;;;;;4970642;28;20399;-68
2022/03/09 13:20:19;;;;;;;13.93;10.70;;;;;;;;;;4972568;28;20553;-68
2022/03/09 13:22:47;;;;;;;15.88;11.15;;;;;;;;;;4972236;28;20046;-69
2022/03/09 13:25:14;;;;;;;15.40;11.45;;;;;;;;;;4971679;28;20098;-69
2022/03/09 13:27:41;;;;;;;16.77;12.20;;;;;;;;;;4971681;28;20100;-67
2022/03/09 13:30:13;;;;;;;14.60;11.88;;;;;;;;;;4972317;28;20142;-65
2022/03/09 13:32:40;;;;;;;19.97;12.43;;;;;;;;;;4972135;28;20043;-68
2022/03/09 13:35:07;;;;;;;15.70;10.82;;;;;;;;;;4972042;28;20565;-68
2022/03/09 13:37:39;;;;;;;14.00;11.07;;;;;;;;;;4972075;28;20050;-69
2022/03/09 13:40:08;;;;;;;19.67;12.95;;;;;;;;;;4970235;28;20418;-67
2022/03/09 13:42:39;;;;;;;17.27;11.25;;;;;;;;;;4971747;28;20488;-68
2022/03/09 13:45:17;;;;;;;17.48;10.98;;;;;;;;;;4972061;28;20130;-68
2022/03/09 13:47:53;;;;;;;13.38;10.70;;;;;;;;;;4969425;28;20055;-68
2022/03/09 13:50:28;;;;;;;15.38;11.43;;;;;;;;;;4971483;28;20490;-68
2022/03/09 13:53:07;;;;;;;14.95;10.77;;;;;;;;;;4972069;28;20488;-69
2022/03/09 13:55:49;;;;;;;18.95;12.30;;;;;;;;;;4973096;28;20054;-67
2022/03/09 13:58:18;;;;;;;13.88;10.15;;;;;;;;;;4967597;28;20055;-68
2022/03/09 14:00:46;;;;;;;17.33;10.90;;;;;;;;;;4971206;28;20457;-69
2022/03/09 14:03:17;;;;;;;13.43;11.63;;;;;;;;;;4971149;28;20050;-68
2022/03/09 14:05:47;;;;;;;16.27;11.07;;;;;;;;;;4970470;28;20050;-69
2022/03/09 14:08:31;;;;;;;13.85;11.10;;;;;;;;;;4969999;28;20046;-69
2022/03/09 14:11:13;;;;;;;15.35;10.70;;;;;;;;;;4969442;28;20449;-69
2022/03/09 14:14:04;;;;;;;17.00;12.03;;;;;;;;;;4967211;28;20674;-70
2022/03/09 14:16:35;;;;;;;15.43;11.68;;;;;;;;;;4971345;28;20055;-67
2022/03/09 14:19:12;;;;;;;15.30;11.20;;;;;;;;;;4970500;28;20051;-69
2022/03/09 14:21:40;;;;;;;14.70;11.15;;;;;;;;;;4971046;28;20051;-68
2022/03/09 14:24:07;;;;;;;15.35;11.18;;;;;;;;;;4971333;28;20050;-68
2022/03/09 14:26:43;;;;;;;15.30;11.07;;;;;;;;;;4971647;28;20058;-69
2022/03/09 14:29:11;;;;;;;14.63;11.13;;;;;;;;;;4967160;28;20239;-68
2022/03/09 14:31:40;;;;;;;16.67;11.93;;;;;;;;;;4970695;28;20492;-68
2022/03/09 14:34:07;;;;;;;13.38;10.52;;;;;;;;;;4971227;28;20043;-67
2022/03/09 14:36:36;;;;;;;16.85;12.18;;;;;;;;;;4964882;28;20109;-73
2022/03/09 14:39:03;;;;;;;26.30;17.88;;;;;;;;;;4959511;28;20133;-72
2022/03/09 14:41:30;;;;;;;18.50;13.07;;;;;;;;;;4970982;28;20055;-68